Flight Track Log - Related Links

Times and Time Zones

All times are in EDT time to prevent confusion due to time zone crossing. See the AAL2360 flight status page for this flight to view local times or setup timezone preferences in your user account.

Time Position Orientation Groundspeed Altitude Reporting Facility
EDT Latitude Longitude Course Direction KTS MPH feet Rate Location/Type
Wed 03:38:56 PM 32.8833 -97.0333 357° North 176 203 1,200  Level Dallas / Fort Worth TRACON
Wed 03:40:20 PM 32.8000 -97.0000 161° South 245 282 3,700 2,029 Climbing Dallas / Fort Worth TRACON
Wed 03:41:00 PM 32.8510 -96.8000 North  Level FlightAware Approximate
Wed 03:41:15 PM 32.7667 -96.9500 128° Southeast 267 307 5,900  Level Dallas / Fort Worth TRACON
Wed 03:42:00 PM 32.9696 -96.8000 North  Level FlightAware Approximate
Wed 03:42:15 PM 32.7667 -96.8500 90° East 308 354 8,300  Level Dallas / Fort Worth TRACON
Wed 03:43:00 PM 33.0882 -96.8015 357° North  Level FlightAware Approximate
Wed 03:44:00 PM 33.2066 -96.8100 357° North  Level FlightAware Approximate
Wed 03:44:25 PM 32.9614 -96.8092 10° North 356 410 12,300  Level Fort Worth Center
Wed 03:45:25 PM 33.0594 -96.8136 358° North 376 433 14,600 2,350 Climbing Fort Worth Center
Wed 03:46:25 PM 33.1786 -96.8153 359° North 386 444 17,000 2,050 Climbing Fort Worth Center
Wed 03:47:25 PM 33.2786 -96.8194 358° North 386 444 18,700 1,850 Climbing Fort Worth Center
Wed 03:48:25 PM 33.4039 -96.8236 358° North 399 459 20,700 1,650 Climbing Fort Worth Center
Wed 03:49:25 PM 33.5039 -96.7906 15° North 405 466 22,000 1,450 Climbing Fort Worth Center
Wed 03:50:25 PM 33.6100 -96.7225 28° Northeast 416 479 23,600 1,500 Climbing Fort Worth Center
Wed 03:51:25 PM 33.7142 -96.6544 29° Northeast 421 484 25,000 1,400 Climbing Fort Worth Center
Wed 03:52:25 PM 33.8242 -96.5858 27° Northeast 427 491 26,400 1,400 Climbing Fort Worth Center
Wed 03:53:25 PM 33.9322 -96.5147 29° Northeast 427 491 27,800 1,300 Climbing Fort Worth Center
Wed 03:54:25 PM 34.0403 -96.4436 29° Northeast 427 491 29,000 1,050 Climbing Fort Worth Center
Wed 03:55:25 PM 34.1503 -96.3569 33° Northeast 427 491 29,900 950 Climbing Fort Worth Center
Wed 03:56:25 PM 34.2558 -96.2703 34° Northeast 427 491 30,900 1,050 Climbing Fort Worth Center
Wed 03:57:25 PM 34.3594 -96.1883 33° Northeast 439 505 32,000 1,000 Climbing Fort Worth Center
Wed 03:58:25 PM 34.4586 -96.1039 35° Northeast 439 505 32,900 500 Climbing Fort Worth Center
Wed 03:59:25 PM 34.5600 -96.0217 34° Northeast 439 505 33,000 50 Climbing Fort Worth Center
Wed 04:00:25 PM 34.6633 -95.9367 34° Northeast 439 505 33,000  Level Fort Worth Center
Wed 04:01:25 PM 34.7625 -95.8514 35° Northeast 439 505 33,000  Level Fort Worth Center
Wed 04:02:25 PM 34.8656 -95.7661 34° Northeast 439 505 33,000  Level Fort Worth Center
Wed 04:03:25 PM 34.9644 -95.6706 38° Northeast 439 505 33,000  Level Fort Worth Center
Wed 04:04:25 PM 35.0656 -95.5797 36° Northeast 444 511 33,000  Level Fort Worth Center
Wed 04:05:56 PM 35.2014 -95.4544 37° Northeast 448 516 33,000  Level Memphis Center
Wed 04:06:56 PM 35.2969 -95.3611 39° Northeast 448 516 33,000  Level Memphis Center
Wed 04:07:56 PM 35.3944 -95.2700 37° Northeast 448 516 33,000  Level Memphis Center
Wed 04:08:56 PM 35.4922 -95.1739 39° Northeast 448 516 33,000  Level Memphis Center
Wed 04:09:56 PM 35.5875 -95.0825 38° Northeast 443 510 33,000  Level Memphis Center
Wed 04:10:56 PM 35.6869 -94.9883 38° Northeast 443 510 33,000  Level Memphis Center
Wed 04:11:56 PM 35.7842 -94.8914 39° Northeast 443 510 33,000  Level Memphis Center
Wed 04:12:56 PM 35.8814 -94.7994 37° Northeast 443 510 33,000  Level Memphis Center
Wed 04:13:56 PM 35.9764 -94.7044 39° Northeast 437 503 33,000  Level Memphis Center
Wed 04:14:56 PM 36.0736 -94.6094 38° Northeast 437 503 33,000  Level Memphis Center
Wed 04:15:56 PM 36.1706 -94.5169 38° Northeast 437 503 33,000  Level Memphis Center
Wed 04:16:24 PM 36.2119 -94.4783 37° Northeast 443 510 33,000  Level Kansas City Center
Wed 04:17:28 PM 36.3078 -94.3828 39° Northeast 443 510 33,000  Level Kansas City Center
Wed 04:18:29 PM 36.4231 -94.2700 38° Northeast 442 509 33,000  Level Kansas City Center
Wed 04:19:30 PM 36.5197 -94.1761 38° Northeast 441 507 33,000  Level Kansas City Center
Wed 04:20:34 PM 36.6156 -94.0803 39° Northeast 442 509 33,000  Level Kansas City Center
Wed 04:21:34 PM 36.7125 -93.9847 38° Northeast 442 509 33,000  Level Kansas City Center
Wed 04:22:36 PM 36.8086 -93.8883 39° Northeast 443 510 33,000  Level Kansas City Center
Wed 04:23:40 PM 36.9028 -93.7931 39° Northeast 438 504 33,000  Level Kansas City Center
Wed 04:24:41 PM 37.0097 -93.6839 39° Northeast 438 504 33,000  Level Kansas City Center
Wed 04:25:45 PM 37.1069 -93.5867 39° Northeast 442 509 33,000  Level Kansas City Center
Wed 04:26:45 PM 37.2022 -93.4886 39° Northeast 443 510 33,000  Level Kansas City Center
Wed 04:27:49 PM 37.3008 -93.3931 38° Northeast 445 512 33,000  Level Kansas City Center
Wed 04:28:49 PM 37.4181 -93.2778 38° Northeast 445 512 33,000  Level Kansas City Center
Wed 04:29:53 PM 37.5178 -93.1869 36° Northeast 443 510 33,000  Level Kansas City Center
Wed 04:30:53 PM 37.6169 -93.0942 37° Northeast 442 509 33,000  Level Kansas City Center
Wed 04:31:57 PM 37.7167 -93.0006 37° Northeast 443 510 33,000  Level Kansas City Center
Wed 04:32:58 PM 37.8158 -92.9089 36° Northeast 441 507 33,000  Level Kansas City Center
Wed 04:33:59 PM 37.9153 -92.8158 36° Northeast 441 507 33,000  Level Kansas City Center
Wed 04:35:03 PM 38.0142 -92.7228 37° Northeast 442 509 33,000  Level Kansas City Center
Wed 04:36:04 PM 38.1125 -92.6292 37° Northeast 443 510 33,000  Level Kansas City Center
Wed 04:37:05 PM 38.2361 -92.5119 37° Northeast 443 510 33,000  Level Kansas City Center
Wed 04:38:09 PM 38.3369 -92.4172 36° Northeast 445 512 33,000  Level Kansas City Center
Wed 04:39:10 PM 38.4356 -92.3217 37° Northeast 443 510 33,000  Level Kansas City Center
Wed 04:40:14 PM 38.5361 -92.2258 37° Northeast 446 513 33,000  Level Kansas City Center
Wed 04:41:14 PM 38.6394 -92.1253 37° Northeast 458 527 33,000  Level Kansas City Center
Wed 04:42:15 PM 38.7439 -92.0258 37° Northeast 464 534 33,000  Level Kansas City Center
Wed 04:43:19 PM 38.8478 -91.9250 37° Northeast 466 536 33,000  Level Kansas City Center
Wed 04:44:20 PM 38.9519 -91.8250 37° Northeast 467 537 33,000  Level Kansas City Center
Wed 04:45:21 PM 39.0786 -91.7028 37° Northeast 471 542 33,000  Level Kansas City Center
Wed 04:46:25 PM 39.1739 -91.6097 37° Northeast 471 542 33,000  Level Kansas City Center
Wed 04:47:25 PM 39.2800 -91.5067 37° Northeast 474 545 33,000  Level Kansas City Center
Wed 04:48:29 PM 39.3872 -91.4006 37° Northeast 481 554 33,000  Level Kansas City Center
Wed 04:49:31 PM 39.5156 -91.2739 37° Northeast 482 555 33,000  Level Kansas City Center
Wed 04:50:31 PM 39.6222 -91.1681 37° Northeast 482 555 33,000  Level Kansas City Center
Wed 04:51:35 PM 39.7278 -91.0628 37° Northeast 480 552 33,000  Level Kansas City Center
Wed 04:52:37 PM 39.8244 -90.9631 38° Northeast 482 555 33,000  Level Kansas City Center
Wed 04:53:38 PM 39.9536 -90.8358 37° Northeast 482 555 33,000  Level Kansas City Center
Wed 04:54:42 PM 40.0619 -90.7261 38° Northeast 489 563 33,000  Level Kansas City Center
Wed 04:55:42 PM 40.1686 -90.6167 38° Northeast 488 562 33,000  Level Kansas City Center
Wed 04:56:46 PM 40.2767 -90.5067 38° Northeast 491 565 33,000  Level Kansas City Center
Wed 04:57:48 PM 40.3844 -90.3964 38° Northeast 490 564 33,000  Level Kansas City Center
Wed 04:58:09 PM 40.4278 -90.3522 38° Northeast 493 567 33,000  Level Chicago Center
Wed 04:59:12 PM 40.5092 -90.2086 53° Northeast 500 575 33,000 -192 Level Chicago Center
Wed 05:00:14 PM 40.5364 -89.9919 81° East 502 578 32,600 -1,065 Descending Chicago Center
Wed 05:01:16 PM 40.6208 -89.8511 52° Northeast 500 575 30,800 -1,790 Descending Chicago Center
Wed 05:02:18 PM 40.7167 -89.7219 46° Northeast 495 570 28,900 -1,839 Descending Chicago Center
Wed 05:03:20 PM 40.8081 -89.5986 46° Northeast 479 551 27,000 -1,984 Descending Chicago Center
Wed 05:04:22 PM 40.9033 -89.4644 47° Northeast 445 512 24,800 -1,839 Descending Chicago Center
Wed 05:05:24 PM 40.9864 -89.3481 47° Northeast 437 503 23,200 -1,742 Descending Chicago Center
Wed 05:06:26 PM 41.0675 -89.2317 47° Northeast 430 495 21,200 -1,984 Descending Chicago Center
Wed 05:07:28 PM 41.1531 -89.1114 47° Northeast 425 489 19,100 -2,129 Descending Chicago Center
Wed 05:08:30 PM 41.2308 -88.9994 47° Northeast 416 479 16,800 -1,935 Descending Chicago Center
Wed 05:09:32 PM 41.2989 -88.8961 49° Northeast 379 436 15,100 -1,645 Descending Chicago Center
Wed 05:10:34 PM 41.3694 -88.7961 47° Northeast 373 429 13,400 -1,790 Descending Chicago Center
Wed 05:11:36 PM 41.4497 -88.6783 48° Northeast 361 415 11,400 -1,161 Descending Chicago Center
Wed 05:12:38 PM 41.5150 -88.5817 48° Northeast 350 403 11,000 -194 Descending Chicago Center
Wed 05:13:40 PM 41.5547 -88.4747 64° Northeast 334 384 11,000 -677 Level Chicago Center
Wed 05:14:42 PM 41.5786 -88.3533 75° East 338 389 9,600 -1,113 Descending Chicago Center
Wed 05:15:44 PM 41.6403 -88.2658 47° Northeast 324 373 8,700 -1,016 Descending Chicago Center
Wed 05:16:46 PM 41.7092 -88.1867 41° Northeast 325 374 7,500 -1,258 Descending Chicago Center
Wed 05:17:48 PM 41.7853 -88.0961 42° Northeast 302 348 6,100 -1,355 Descending Chicago Center

Login

Don't have an account? Register now (free) for customized features, flight alerts, and more!